createdAt,value
2019-06-07T00:00:39.441Z,11.79
2019-06-07T00:01:30.446Z,11.86
2019-06-07T00:02:30.450Z,11.86
2019-06-07T00:03:30.546Z,11.89
2019-06-07T00:04:30.436Z,11.89
2019-06-07T00:05:30.435Z,11.87
2019-06-07T00:06:30.434Z,11.83
2019-06-07T00:07:30.441Z,11.84
2019-06-07T00:08:30.433Z,11.88
2019-06-07T00:09:30.434Z,11.89
2019-06-07T00:10:36.530Z,11.88
2019-06-07T00:11:30.461Z,11.86
2019-06-07T00:12:30.463Z,11.86
2019-06-07T00:13:30.433Z,11.79
2019-06-07T00:14:30.432Z,11.86
2019-06-07T00:15:30.434Z,11.79
2019-06-07T00:16:30.428Z,11.83
2019-06-07T00:17:30.437Z,11.84
2019-06-07T00:18:30.429Z,11.87
2019-06-07T00:19:30.431Z,11.84
2019-06-07T00:20:30.428Z,11.79
2019-06-07T00:22:12.928Z,11.83
2019-06-07T00:22:33.445Z,11.86
2019-06-07T00:23:30.425Z,11.77
2019-06-07T00:24:30.422Z,11.86
2019-06-07T00:25:30.425Z,11.73
2019-06-07T00:26:30.424Z,11.86
2019-06-07T00:27:30.458Z,11.87
2019-06-07T00:28:30.423Z,11.83
2019-06-07T00:29:30.422Z,11.83
2019-06-07T00:30:42.368Z,11.86
2019-06-07T00:31:30.417Z,11.83
2019-06-07T00:32:30.429Z,11.87
2019-06-07T00:33:30.421Z,11.87
2019-06-07T00:34:30.424Z,11.82
2019-06-07T00:35:30.420Z,11.81
2019-06-07T00:36:30.450Z,11.86
2019-06-07T00:37:30.433Z,11.81
2019-06-07T00:38:30.417Z,11.81
2019-06-07T00:39:30.417Z,11.83
2019-06-07T00:40:32.286Z,11.72
2019-06-07T00:41:30.427Z,11.84
2019-06-07T00:42:30.419Z,11.82
2019-06-07T00:43:30.431Z,11.84
2019-06-07T00:44:30.434Z,11.82
2019-06-07T00:45:30.413Z,11.84
2019-06-07T00:46:30.410Z,11.87
2019-06-07T00:47:30.416Z,11.84
2019-06-07T00:48:32.986Z,11.83
2019-06-07T00:49:40.437Z,11.81
2019-06-07T00:50:30.409Z,11.81
2019-06-07T00:51:49.603Z,11.81
2019-06-07T00:53:32.584Z,11.83
2019-06-07T00:54:30.408Z,11.84
2019-06-07T00:55:30.410Z,11.81
2019-06-07T00:56:30.409Z,11.81
2019-06-07T00:57:30.406Z,11.81
2019-06-07T00:58:30.417Z,11.81
2019-06-07T00:59:30.404Z,11.81
2019-06-07T01:00:30.409Z,11.66
2019-06-07T01:01:30.403Z,11.84
2019-06-07T01:02:31.649Z,11.82
2019-06-07T01:03:30.418Z,11.84
2019-06-07T01:04:30.403Z,11.79
2019-06-07T01:05:31.633Z,11.82
2019-06-07T01:06:30.401Z,11.82
2019-06-07T01:07:30.402Z,11.81
2019-06-07T01:08:30.920Z,11.81
2019-06-07T01:09:30.410Z,11.84
2019-06-07T01:10:52.444Z,11.84
2019-06-07T01:11:30.393Z,11.81
2019-06-07T01:12:30.394Z,11.81
2019-06-07T01:13:30.449Z,11.81
2019-06-07T01:14:30.402Z,11.84
2019-06-07T01:15:30.395Z,11.81
2019-06-07T01:16:54.841Z,11.81
2019-06-07T01:17:39.664Z,11.64
2019-06-07T01:18:38.330Z,11.72
2019-06-07T01:19:30.395Z,11.84
2019-06-07T01:20:30.392Z,11.81
2019-06-07T01:21:30.402Z,11.74
2019-06-07T01:22:30.399Z,11.81
2019-06-07T01:24:30.384Z,11.78
2019-06-07T01:25:30.392Z,11.74
2019-06-07T01:26:30.623Z,11.78
2019-06-07T01:27:30.392Z,11.82
2019-06-07T01:28:30.416Z,11.82
2019-06-07T01:29:31.186Z,11.66
2019-06-07T01:30:30.385Z,11.79
2019-06-07T01:31:31.489Z,11.66
2019-06-07T01:32:31.856Z,11.74
2019-06-07T01:33:49.750Z,11.82
2019-06-07T01:34:30.385Z,11.78
2019-06-07T01:35:30.387Z,11.81
2019-06-07T01:36:31.138Z,11.78
2019-06-07T01:37:30.585Z,11.66
2019-06-07T01:38:30.393Z,11.74
2019-06-07T01:39:31.864Z,11.63
2019-06-07T01:40:32.676Z,11.78
2019-06-07T01:41:30.931Z,11.78
2019-06-07T01:42:31.029Z,11.82
2019-06-07T01:43:31.014Z,11.62
2019-06-07T01:44:31.282Z,11.62
2019-06-07T01:45:31.188Z,11.69
2019-06-07T01:46:30.378Z,11.79
2019-06-07T01:47:32.173Z,11.82
2019-06-07T01:48:48.448Z,11.78
2019-06-07T01:49:30.388Z,11.82
2019-06-07T01:50:30.377Z,11.78
2019-06-07T01:51:30.662Z,11.82
2019-06-07T01:52:44.993Z,11.82
2019-06-07T01:53:31.573Z,11.78
2019-06-07T01:55:32.762Z,11.78
2019-06-07T01:56:30.376Z,11.78
2019-06-07T01:57:44.233Z,11.64
2019-06-07T01:58:30.370Z,11.62
2019-06-07T01:59:31.371Z,11.78
2019-06-07T02:00:32.538Z,11.78
2019-06-07T02:01:35.078Z,11.66
2019-06-07T02:02:31.829Z,11.77
2019-06-07T02:03:33.117Z,11.78
2019-06-07T02:04:33.021Z,11.69
2019-06-07T02:05:32.284Z,11.77
2019-06-07T02:06:32.220Z,11.78
2019-06-07T02:07:33.194Z,11.61
2019-06-07T02:08:34.395Z,11.74
2019-06-07T02:09:31.835Z,11.78
2019-06-07T02:10:33.437Z,11.79
2019-06-07T02:11:31.814Z,11.78
2019-06-07T02:12:40.327Z,11.62
2019-06-07T02:13:30.800Z,11.78
2019-06-07T02:14:33.212Z,11.77
2019-06-07T02:15:36.144Z,11.78
2019-06-07T02:16:32.512Z,11.79
2019-06-07T02:17:32.881Z,11.78
2019-06-07T02:18:34.668Z,11.78
2019-06-07T02:19:31.711Z,11.76
2019-06-07T02:20:34.242Z,11.64
2019-06-07T02:21:31.553Z,11.77
2019-06-07T02:22:32.385Z,11.61
2019-06-07T02:23:33.053Z,11.69
2019-06-07T02:24:35.056Z,11.77
2019-06-07T02:25:46.603Z,11.78
2019-06-07T02:26:32.580Z,11.79
2019-06-07T02:27:32.597Z,11.79
2019-06-07T02:28:44.290Z,11.77
2019-06-07T02:29:33.323Z,11.77
2019-06-07T02:30:47.197Z,11.77
2019-06-07T02:31:38.275Z,11.77
2019-06-07T02:32:34.648Z,11.78
2019-06-07T02:33:35.110Z,11.77
2019-06-07T02:34:36.019Z,11.76
2019-06-07T02:35:34.870Z,11.79
2019-06-07T02:36:38.461Z,11.76
2019-06-07T02:37:34.105Z,11.79
2019-06-07T02:38:35.915Z,11.76
2019-06-07T02:39:34.498Z,11.61
2019-06-07T02:40:34.549Z,11.61
2019-06-07T02:41:35.947Z,11.79
2019-06-07T02:42:39.121Z,11.79
2019-06-07T02:43:34.388Z,11.77
2019-06-07T02:44:37.819Z,11.79
2019-06-07T02:45:37.871Z,11.72
2019-06-07T02:46:40.171Z,11.76
2019-06-07T02:47:33.642Z,11.76
2019-06-07T02:48:35.257Z,11.77
2019-06-07T02:49:36.102Z,11.79
2019-06-07T02:50:35.394Z,11.76
2019-06-07T02:51:35.878Z,11.79
2019-06-07T02:52:34.409Z,11.63
2019-06-07T02:53:33.675Z,11.76
2019-06-07T02:54:36.112Z,11.77
2019-06-07T02:55:34.643Z,11.76
2019-06-07T02:56:52.495Z,11.74
2019-06-07T02:57:36.803Z,11.79
2019-06-07T02:58:35.300Z,11.72
2019-06-07T02:59:59.681Z,11.76
2019-06-07T03:01:05.484Z,11.73
2019-06-07T03:01:32.457Z,11.61
2019-06-07T03:02:33.547Z,11.74
2019-06-07T03:03:32.580Z,11.76
2019-06-07T03:04:36.795Z,11.76
2019-06-07T03:05:34.197Z,11.73
2019-06-07T03:06:35.712Z,11.76
2019-06-07T03:07:33.025Z,11.59
2019-06-07T03:08:30.966Z,11.58
2019-06-07T03:09:32.825Z,11.76
2019-06-07T03:10:32.269Z,11.73
2019-06-07T03:11:31.793Z,11.67
2019-06-07T03:12:33.256Z,11.76
2019-06-07T03:13:31.932Z,11.77
2019-06-07T03:14:32.485Z,11.74
2019-06-07T03:15:39.551Z,11.77
2019-06-07T03:16:31.206Z,11.74
2019-06-07T03:17:34.678Z,11.74
2019-06-07T03:18:31.698Z,11.73
2019-06-07T03:19:31.347Z,11.73
2019-06-07T03:20:32.799Z,11.74
2019-06-07T03:21:31.498Z,11.77
2019-06-07T03:22:32.069Z,11.73
2019-06-07T03:23:32.411Z,11.76
2019-06-07T03:24:33.144Z,11.74
2019-06-07T03:25:30.852Z,11.73
2019-06-07T03:26:34.869Z,11.77
2019-06-07T03:27:36.015Z,11.63
2019-06-07T03:28:34.256Z,11.73
2019-06-07T03:29:31.616Z,11.76
2019-06-07T03:30:52.737Z,11.73
2019-06-07T03:31:32.651Z,11.77
2019-06-07T03:32:35.934Z,11.62
2019-06-07T03:33:33.414Z,11.69
2019-06-07T03:34:38.161Z,11.73
2019-06-07T03:35:32.357Z,11.73
2019-06-07T03:36:32.026Z,11.73
2019-06-07T03:37:34.800Z,11.71
2019-06-07T03:38:34.408Z,11.67
2019-06-07T03:39:31.399Z,11.76
2019-06-07T03:40:31.696Z,11.61
2019-06-07T03:41:38.612Z,11.77
2019-06-07T03:42:31.624Z,11.56
2019-06-07T03:43:32.674Z,11.72
2019-06-07T03:44:35.079Z,11.72
2019-06-07T03:45:32.340Z,11.72
2019-06-07T03:46:34.349Z,11.71
2019-06-07T03:47:32.318Z,11.72
2019-06-07T03:48:32.278Z,11.71
2019-06-07T03:49:31.542Z,11.73
2019-06-07T03:50:33.428Z,11.71
2019-06-07T03:51:32.227Z,11.71
2019-06-07T03:52:35.028Z,11.71
2019-06-07T03:53:31.129Z,11.74
2019-06-07T03:54:32.098Z,11.72
2019-06-07T03:55:31.243Z,11.72
2019-06-07T03:56:31.785Z,11.59
2019-06-07T03:57:37.145Z,11.72
2019-06-07T03:58:32.569Z,11.67
2019-06-07T03:59:35.563Z,11.74
2019-06-07T04:00:32.921Z,11.72
2019-06-07T04:01:31.959Z,11.71
2019-06-07T04:02:31.046Z,11.72
2019-06-07T04:03:37.014Z,11.71
2019-06-07T04:04:32.278Z,11.69
2019-06-07T04:05:32.751Z,11.71
2019-06-07T04:06:32.573Z,11.62
2019-06-07T04:07:31.160Z,11.74
2019-06-07T04:08:30.789Z,11.69
2019-06-07T04:09:33.718Z,11.66
2019-06-07T04:10:51.718Z,11.74
2019-06-07T04:11:30.294Z,11.74
2019-06-07T04:12:31.838Z,11.71
2019-06-07T04:13:34.277Z,11.71
2019-06-07T04:14:30.932Z,11.71
2019-06-07T04:15:30.671Z,11.69
2019-06-07T04:16:35.006Z,11.74
2019-06-07T04:17:32.026Z,11.69
2019-06-07T04:18:30.653Z,11.71
2019-06-07T04:19:32.316Z,11.59
2019-06-07T04:20:32.907Z,11.71
2019-06-07T04:21:31.942Z,11.66
2019-06-07T04:22:31.400Z,11.74
2019-06-07T04:23:32.809Z,11.64
2019-06-07T04:24:31.112Z,11.71
2019-06-07T04:25:33.897Z,11.71
2019-06-07T04:26:31.411Z,11.74
2019-06-07T04:27:30.620Z,11.71
2019-06-07T04:29:29.941Z,11.66
2019-06-07T04:29:33.791Z,11.59
2019-06-07T04:30:34.183Z,11.68
2019-06-07T04:31:32.186Z,11.71
2019-06-07T04:32:32.068Z,11.73
2019-06-07T04:33:31.211Z,11.74
2019-06-07T04:34:34.942Z,11.71
2019-06-07T04:35:31.370Z,11.68
2019-06-07T04:36:45.990Z,11.71
2019-06-07T04:37:30.921Z,11.73
2019-06-07T04:38:32.692Z,11.69
2019-06-07T04:39:33.509Z,11.71
2019-06-07T04:40:30.724Z,11.69
2019-06-07T04:41:31.045Z,11.71
2019-06-07T04:42:34.428Z,11.71
2019-06-07T04:43:31.361Z,11.68
2019-06-07T04:44:31.170Z,11.71
2019-06-07T04:45:36.237Z,11.68
2019-06-07T04:46:31.581Z,11.69
2019-06-07T04:47:33.358Z,11.68
2019-06-07T04:48:31.306Z,11.73
2019-06-07T04:49:32.645Z,11.71
2019-06-07T04:50:33.828Z,11.71
2019-06-07T04:51:31.788Z,11.64
2019-06-07T04:52:32.484Z,11.69
2019-06-07T04:53:34.397Z,11.71
2019-06-07T04:54:32.126Z,11.68
2019-06-07T04:55:31.495Z,11.73
2019-06-07T04:56:32.843Z,11.71
2019-06-07T04:57:33.475Z,11.71
2019-06-07T04:58:31.408Z,11.74
2019-06-07T05:00:04.205Z,11.71
2019-06-07T05:01:31.111Z,11.74
2019-06-07T05:02:31.907Z,11.71
2019-06-07T05:03:34.742Z,11.71
2019-06-07T05:04:31.702Z,11.73
2019-06-07T05:05:31.800Z,11.73
2019-06-07T05:06:32.929Z,11.71
2019-06-07T05:07:30.987Z,11.72
2019-06-07T05:08:31.977Z,11.56
2019-06-07T05:09:30.265Z,11.72
2019-06-07T05:10:34.351Z,11.59
2019-06-07T05:11:31.981Z,11.72
2019-06-07T05:12:30.262Z,11.74
2019-06-07T05:13:31.603Z,11.74
2019-06-07T05:14:32.518Z,11.63
2019-06-07T05:15:30.257Z,11.74
2019-06-07T05:16:31.265Z,11.74
2019-06-07T05:17:31.712Z,11.74
2019-06-07T05:18:30.261Z,11.61
2019-06-07T05:19:31.198Z,11.73
2019-06-07T05:20:30.252Z,11.74
2019-06-07T05:21:50.285Z,11.76
2019-06-07T05:22:31.607Z,11.73
2019-06-07T05:24:03.575Z,11.59
2019-06-07T05:24:30.732Z,11.73
2019-06-07T05:25:31.837Z,11.74
2019-06-07T05:26:30.559Z,11.76
2019-06-07T05:27:33.574Z,11.73
2019-06-07T05:28:30.246Z,11.77
2019-06-07T05:29:30.779Z,11.77
2019-06-07T05:31:01.998Z,11.61
2019-06-07T05:31:31.081Z,11.77
2019-06-07T05:32:32.898Z,11.77
2019-06-07T05:33:31.135Z,11.77
2019-06-07T05:34:32.250Z,11.77
2019-06-07T05:35:30.643Z,11.79
2019-06-07T05:36:31.487Z,11.59
2019-06-07T05:37:33.511Z,11.76
2019-06-07T05:38:31.050Z,11.78
2019-06-07T05:39:32.110Z,11.76
2019-06-07T05:40:32.940Z,11.77
2019-06-07T05:41:32.302Z,11.71
2019-06-07T05:42:31.800Z,11.76
2019-06-07T05:43:34.326Z,11.61
2019-06-07T05:44:31.558Z,11.77
2019-06-07T05:45:30.239Z,11.76
2019-06-07T05:46:30.239Z,11.76
2019-06-07T05:47:30.237Z,11.74
2019-06-07T05:48:30.244Z,11.62
2019-06-07T05:49:30.248Z,11.76
2019-06-07T05:50:42.597Z,11.76
2019-06-07T05:51:30.250Z,11.73
2019-06-07T05:52:30.236Z,11.77
2019-06-07T05:53:31.721Z,11.76
2019-06-07T05:54:30.248Z,11.76
2019-06-07T05:55:30.235Z,11.78
2019-06-07T05:56:30.232Z,11.64
2019-06-07T05:57:30.230Z,11.73
2019-06-07T05:58:30.230Z,11.77
2019-06-07T05:59:30.231Z,11.77
2019-06-07T06:00:30.240Z,11.73
2019-06-07T06:01:45.992Z,11.74
2019-06-07T06:02:30.230Z,11.74
2019-06-07T06:03:30.228Z,11.77
2019-06-07T06:04:30.229Z,11.77
2019-06-07T06:05:34.415Z,11.76
2019-06-07T06:06:30.228Z,11.78
2019-06-07T06:07:30.227Z,11.76
2019-06-07T06:08:30.223Z,11.77
2019-06-07T06:09:30.223Z,11.73
2019-06-07T06:10:30.232Z,11.77
2019-06-07T06:11:48.070Z,11.61
2019-06-07T06:12:35.188Z,11.77
2019-06-07T06:13:30.226Z,11.73
2019-06-07T06:14:30.221Z,11.74
2019-06-07T06:15:42.169Z,11.66
2019-06-07T06:16:30.227Z,11.77
2019-06-07T06:17:30.235Z,11.64
2019-06-07T06:18:30.219Z,11.77
2019-06-07T06:19:30.227Z,11.76
2019-06-07T06:20:33.085Z,11.62
2019-06-07T06:21:30.221Z,11.66
2019-06-07T06:22:30.216Z,11.79
2019-06-07T06:23:30.215Z,11.69
2019-06-07T06:24:30.216Z,11.84
2019-06-07T06:25:33.139Z,11.82
2019-06-07T06:26:30.214Z,11.81
2019-06-07T06:28:03.485Z,11.79
2019-06-07T06:28:30.223Z,11.78
2019-06-07T06:29:30.216Z,11.81
2019-06-07T06:30:30.231Z,11.81
2019-06-07T06:31:30.210Z,11.77
2019-06-07T06:32:41.989Z,11.66
2019-06-07T06:33:34.407Z,11.78
2019-06-07T06:34:30.219Z,11.86
2019-06-07T06:35:30.229Z,11.87
2019-06-07T06:36:30.211Z,11.78
2019-06-07T06:37:30.212Z,11.84
2019-06-07T06:38:31.420Z,11.83
2019-06-07T06:39:30.205Z,11.88
2019-06-07T06:40:30.242Z,11.83
2019-06-07T06:41:30.205Z,11.87
2019-06-07T06:42:30.211Z,11.88
2019-06-07T06:43:30.205Z,11.88
2019-06-07T06:44:30.206Z,11.87
2019-06-07T06:45:30.204Z,11.88
2019-06-07T06:46:38.974Z,11.84
2019-06-07T06:47:30.204Z,11.89
2019-06-07T06:48:30.201Z,11.87
2019-06-07T06:49:30.206Z,11.87
2019-06-07T06:50:30.203Z,11.83
2019-06-07T06:51:30.208Z,11.83
2019-06-07T06:52:30.198Z,11.86
2019-06-07T06:53:30.200Z,11.76
2019-06-07T06:54:40.852Z,11.88
2019-06-07T06:55:30.202Z,11.72
2019-06-07T06:56:30.223Z,11.82
2019-06-07T06:57:30.196Z,11.88
2019-06-07T06:59:18.659Z,11.86
2019-06-07T06:59:39.512Z,11.94
2019-06-07T07:00:43.566Z,11.88
2019-06-07T07:01:30.204Z,11.97
2019-06-07T07:02:30.191Z,11.89
2019-06-07T07:03:56.503Z,11.88
2019-06-07T07:04:30.190Z,11.94
2019-06-07T07:05:30.192Z,11.86
2019-06-07T07:06:30.201Z,11.91
2019-06-07T07:07:30.240Z,11.94
2019-06-07T07:08:30.192Z,11.73
2019-06-07T07:09:30.196Z,11.93
2019-06-07T07:10:30.188Z,11.94
2019-06-07T07:11:30.196Z,12.04
2019-06-07T07:12:30.185Z,11.96
2019-06-07T07:13:30.186Z,11.97
2019-06-07T07:14:30.189Z,11.96
2019-06-07T07:15:30.194Z,11.89
2019-06-07T07:16:30.212Z,11.83
2019-06-07T07:17:47.958Z,11.97
2019-06-07T07:18:30.185Z,11.94
2019-06-07T07:19:30.184Z,11.93
2019-06-07T07:20:30.215Z,11.92
2019-06-07T07:21:30.194Z,12.07
2019-06-07T07:22:30.181Z,12.11
2019-06-07T07:23:30.182Z,12.02
2019-06-07T07:24:30.190Z,12.02
2019-06-07T07:25:30.181Z,11.92
2019-06-07T07:26:30.179Z,11.99
2019-06-07T07:27:30.185Z,11.83
2019-06-07T07:28:30.177Z,11.96
2019-06-07T07:29:30.181Z,11.97
2019-06-07T07:30:36.514Z,11.92
2019-06-07T07:31:30.357Z,11.98
2019-06-07T07:32:30.185Z,11.92
2019-06-07T07:34:21.067Z,12.04
2019-06-07T07:34:35.336Z,11.89
2019-06-07T07:35:30.179Z,12.01
2019-06-07T07:36:39.260Z,11.99
2019-06-07T07:37:30.184Z,11.96
2019-06-07T07:38:30.174Z,11.97
2019-06-07T07:39:30.175Z,11.97
2019-06-07T07:41:30.180Z,11.98
2019-06-07T07:42:30.183Z,12.01
2019-06-07T07:43:30.177Z,12.02
2019-06-07T07:44:30.169Z,12.01
2019-06-07T07:45:30.169Z,12.02
2019-06-07T07:46:30.444Z,11.99
2019-06-07T07:47:30.176Z,12.04
2019-06-07T07:48:30.166Z,12.03
2019-06-07T07:49:30.175Z,12.03
2019-06-07T07:50:30.167Z,12.04
2019-06-07T07:51:30.171Z,12.04
2019-06-07T07:52:30.174Z,11.94
2019-06-07T07:53:47.660Z,11.89
2019-06-07T07:54:30.165Z,12.03
2019-06-07T07:55:30.202Z,12.02
2019-06-07T07:56:30.161Z,12.03
2019-06-07T07:57:30.173Z,12.06
2019-06-07T07:58:30.163Z,12.09
2019-06-07T07:59:41.757Z,12.07
2019-06-07T08:00:52.435Z,12.04
2019-06-07T08:01:30.166Z,12.03
2019-06-07T08:02:30.166Z,12.02
2019-06-07T08:03:30.171Z,11.94
2019-06-07T08:05:13.038Z,12.07
2019-06-07T08:05:42.377Z,12.13
2019-06-07T08:06:30.158Z,12.17
2019-06-07T08:07:30.580Z,11.92
2019-06-07T08:08:31.091Z,12.08
2019-06-07T08:09:30.155Z,12.18
2019-06-07T08:10:30.154Z,12.11
2019-06-07T08:11:30.155Z,12.11
2019-06-07T08:12:30.157Z,12.12
2019-06-07T08:13:30.164Z,12.09
2019-06-07T08:14:30.154Z,12.08
2019-06-07T08:15:30.155Z,12.06
2019-06-07T08:16:30.154Z,12.07
2019-06-07T08:17:30.160Z,12.09
2019-06-07T08:18:30.160Z,11.92
2019-06-07T08:19:30.153Z,12.08
2019-06-07T08:20:30.149Z,12.07
2019-06-07T08:21:30.164Z,12.16
2019-06-07T08:22:30.154Z,12.13
2019-06-07T08:23:30.150Z,12.13
2019-06-07T08:24:30.211Z,11.94
2019-06-07T08:25:30.146Z,12.12
2019-06-07T08:26:30.149Z,12.13
2019-06-07T08:27:30.153Z,12.09
2019-06-07T08:28:30.146Z,11.96
2019-06-07T08:29:44.149Z,12.11
2019-06-07T08:31:05.750Z,12.09
2019-06-07T08:31:30.157Z,12.06
2019-06-07T08:32:30.144Z,12.11
2019-06-07T08:33:30.144Z,12.19
2019-06-07T08:34:30.191Z,12.17
2019-06-07T08:36:03.900Z,12.17
2019-06-07T08:36:41.345Z,12.09
2019-06-07T08:38:13.477Z,12.12
2019-06-07T08:38:46.910Z,12.08
2019-06-07T08:39:30.163Z,12.08
2019-06-07T08:40:30.138Z,12.08
2019-06-07T08:41:30.140Z,12.13
2019-06-07T08:43:30.140Z,12.11
2019-06-07T08:44:30.148Z,12.12
2019-06-07T08:45:30.139Z,11.96
2019-06-07T08:46:30.136Z,12.02
2019-06-07T08:47:30.193Z,12.12
2019-06-07T08:48:30.503Z,12.13
2019-06-07T08:49:30.146Z,12.19
2019-06-07T08:50:30.133Z,12.24
2019-06-07T08:51:30.132Z,12.09
2019-06-07T08:52:30.131Z,11.99
2019-06-07T08:53:30.131Z,12.13
2019-06-07T08:54:30.146Z,12.02
2019-06-07T08:55:30.132Z,12.02
2019-06-07T08:56:30.131Z,12.14
2019-06-07T08:57:30.131Z,12.14
2019-06-07T08:58:30.130Z,12.17
2019-06-07T08:59:30.140Z,12.13
2019-06-07T09:00:45.323Z,12.17
2019-06-07T09:01:30.163Z,12.16
2019-06-07T09:02:30.126Z,12.14
2019-06-07T09:03:30.127Z,12.14
2019-06-07T09:04:30.134Z,12.14
2019-06-07T09:05:30.125Z,12.13
2019-06-07T09:07:30.124Z,12.17
2019-06-07T09:08:31.022Z,12.13
2019-06-07T09:09:30.138Z,12.17
2019-06-07T09:10:30.127Z,12.22
2019-06-07T09:11:30.158Z,12.18
2019-06-07T09:12:30.164Z,12.16
2019-06-07T09:13:30.124Z,12.14
2019-06-07T09:14:30.120Z,12.14
2019-06-07T09:15:30.128Z,12.12
2019-06-07T09:16:30.119Z,12.14
2019-06-07T09:17:30.120Z,12.17
2019-06-07T09:18:42.207Z,12.24
2019-06-07T09:19:30.117Z,12.22
2019-06-07T09:20:36.994Z,12.14
2019-06-07T09:21:30.150Z,12.07
2019-06-07T09:22:30.117Z,12.19
2019-06-07T09:23:30.116Z,12.18
2019-06-07T09:24:30.114Z,12.17
2019-06-07T09:25:30.127Z,12.19
2019-06-07T09:26:30.115Z,12.17
2019-06-07T09:27:30.119Z,12.23
2019-06-07T09:28:30.113Z,12.18
2019-06-07T09:29:30.161Z,12.17
2019-06-07T09:30:30.124Z,12.16
2019-06-07T09:31:51.371Z,12.16
2019-06-07T09:32:30.111Z,12.19
2019-06-07T09:33:30.115Z,12.18
2019-06-07T09:34:30.115Z,12.06
2019-06-07T09:35:30.127Z,12.26
2019-06-07T09:36:30.113Z,12.26
2019-06-07T09:38:30.106Z,12.31
2019-06-07T09:39:30.106Z,12.30
2019-06-07T09:40:30.109Z,12.28
2019-06-07T09:41:46.772Z,12.09
2019-06-07T09:42:30.110Z,12.18
2019-06-07T09:44:00.871Z,12.19
2019-06-07T09:44:30.102Z,12.30
2019-06-07T09:45:30.102Z,12.26
2019-06-07T09:46:30.112Z,12.32
2019-06-07T09:47:32.838Z,12.32
2019-06-07T09:49:32.451Z,12.35
2019-06-07T09:50:30.102Z,12.27
2019-06-07T09:51:30.133Z,12.33
2019-06-07T09:52:30.098Z,12.33
2019-06-07T09:53:30.106Z,12.35
2019-06-07T09:55:04.038Z,12.37
2019-06-07T09:55:30.100Z,12.37
2019-06-07T09:56:30.109Z,12.38
2019-06-07T09:57:30.098Z,12.33
2019-06-07T09:58:50.988Z,12.35
2019-06-07T09:59:30.098Z,12.35
2019-06-07T10:00:41.371Z,12.33
2019-06-07T10:01:30.114Z,12.37
2019-06-07T10:02:30.097Z,12.28
2019-06-07T10:03:30.100Z,12.37
2019-06-07T10:04:31.572Z,12.38
2019-06-07T10:05:30.092Z,12.33
2019-06-07T10:06:30.100Z,12.37
2019-06-07T10:07:32.058Z,12.21
2019-06-07T10:11:30.109Z,12.40
2019-06-07T10:12:30.088Z,12.40
2019-06-07T10:13:30.113Z,12.38
2019-06-07T10:14:30.087Z,12.42
2019-06-07T10:15:30.088Z,12.41
2019-06-07T10:16:37.386Z,12.42
2019-06-07T10:17:30.087Z,12.40
2019-06-07T10:18:30.088Z,12.42
2019-06-07T10:19:30.086Z,12.45
2019-06-07T10:20:30.089Z,12.43
2019-06-07T10:21:30.094Z,12.42
2019-06-07T10:22:30.087Z,12.46
2019-06-07T10:23:30.088Z,12.43
2019-06-07T10:24:30.094Z,12.46
2019-06-07T10:25:30.083Z,12.43
2019-06-07T10:26:30.080Z,12.46
2019-06-07T10:27:30.094Z,12.47
2019-06-07T10:28:30.078Z,12.45
2019-06-07T10:29:30.094Z,12.47
2019-06-07T10:30:30.082Z,12.43
2019-06-07T10:31:30.088Z,12.48
2019-06-07T10:32:30.086Z,12.46
2019-06-07T10:33:30.078Z,12.48
2019-06-07T10:34:30.093Z,12.47
2019-06-07T10:35:30.082Z,12.50
2019-06-07T10:36:30.081Z,12.52
2019-06-07T10:37:30.087Z,12.52
2019-06-07T10:38:30.079Z,12.51
2019-06-07T10:39:30.080Z,12.52
2019-06-07T10:40:30.071Z,12.51
2019-06-07T10:41:30.074Z,12.53
2019-06-07T10:42:30.100Z,12.51
2019-06-07T10:43:30.074Z,12.53
2019-06-07T10:44:30.072Z,12.42
2019-06-07T10:45:30.077Z,12.55
2019-06-07T10:46:30.075Z,12.56
2019-06-07T10:47:30.086Z,12.46
2019-06-07T10:48:30.067Z,12.56
2019-06-07T10:49:30.068Z,12.57
2019-06-07T10:50:30.070Z,12.58
2019-06-07T10:51:30.072Z,12.46
2019-06-07T10:52:30.065Z,12.57
2019-06-07T10:53:30.076Z,12.58
2019-06-07T10:54:30.896Z,12.56
2019-06-07T10:55:30.065Z,12.56
2019-06-07T10:56:30.064Z,12.60
2019-06-07T10:57:30.063Z,12.58
2019-06-07T10:58:30.114Z,12.62
2019-06-07T10:59:30.062Z,12.58
2019-06-07T11:00:30.062Z,12.63
2019-06-07T11:01:30.060Z,12.48
2019-06-07T11:02:30.065Z,12.61
2019-06-07T11:03:30.070Z,12.62
2019-06-07T11:04:30.064Z,12.51
2019-06-07T11:05:30.066Z,12.62
2019-06-07T11:06:30.065Z,12.51
2019-06-07T11:07:30.059Z,12.65
2019-06-07T11:08:30.070Z,12.62
2019-06-07T11:09:30.063Z,12.67
2019-06-07T11:10:30.061Z,12.65
2019-06-07T11:11:30.067Z,12.63
2019-06-07T11:12:30.056Z,12.66
2019-06-07T11:13:30.064Z,12.65
2019-06-07T11:14:30.055Z,12.61
2019-06-07T11:15:30.053Z,12.68
2019-06-07T11:16:30.055Z,12.66
2019-06-07T11:17:30.052Z,12.67
2019-06-07T11:18:30.065Z,12.71
2019-06-07T11:19:30.054Z,12.70
2019-06-07T11:20:30.050Z,12.60
2019-06-07T11:21:30.051Z,12.71
2019-06-07T11:22:30.052Z,12.70
2019-06-07T11:23:30.059Z,12.72
2019-06-07T11:24:30.059Z,12.72
2019-06-07T11:25:30.050Z,12.72
2019-06-07T11:26:30.053Z,12.71
2019-06-07T11:27:30.051Z,12.73
2019-06-07T11:28:30.044Z,12.72
2019-06-07T11:29:30.053Z,12.75
2019-06-07T11:30:30.045Z,12.75
2019-06-07T11:31:30.046Z,12.75
2019-06-07T11:32:30.045Z,12.77
2019-06-07T11:33:30.044Z,12.73
2019-06-07T11:34:30.060Z,12.60
2019-06-07T11:35:30.044Z,12.75
2019-06-07T11:36:30.112Z,12.73
2019-06-07T11:37:30.049Z,12.76
2019-06-07T11:38:30.047Z,12.66
2019-06-07T11:39:30.055Z,12.65
2019-06-07T11:40:35.733Z,12.63
2019-06-07T11:41:30.037Z,12.63
2019-06-07T11:42:30.040Z,12.62
2019-06-07T11:43:30.054Z,12.63
2019-06-07T11:44:30.052Z,12.62
2019-06-07T11:45:30.036Z,12.46
2019-06-07T11:46:30.038Z,12.56
2019-06-07T11:47:30.076Z,12.61
2019-06-07T11:48:30.040Z,12.58
2019-06-07T11:49:30.046Z,12.47
2019-06-07T11:50:30.034Z,12.50
2019-06-07T11:51:30.036Z,12.62
2019-06-07T11:52:30.033Z,12.58
2019-06-07T11:53:30.033Z,12.60
2019-06-07T11:54:31.016Z,12.58
2019-06-07T11:55:30.033Z,12.61
2019-06-07T11:56:30.031Z,12.58
2019-06-07T11:57:30.058Z,12.60
2019-06-07T11:58:30.035Z,12.60
2019-06-07T11:59:30.052Z,12.58
2019-06-07T12:00:33.887Z,12.58
2019-06-07T12:01:30.550Z,12.60
2019-06-07T12:02:30.031Z,12.60
2019-06-07T12:03:30.032Z,12.60
2019-06-07T12:04:35.000Z,12.58
2019-06-07T12:05:30.033Z,12.58
2019-06-07T12:06:30.029Z,12.58
2019-06-07T12:07:30.029Z,12.58
2019-06-07T12:08:30.043Z,12.60
2019-06-07T12:09:30.034Z,12.56
2019-06-07T12:10:41.743Z,12.60
2019-06-07T12:11:30.032Z,12.58
2019-06-07T12:12:30.022Z,12.60
2019-06-07T12:13:30.022Z,12.58
2019-06-07T12:14:30.625Z,12.58
2019-06-07T12:15:30.028Z,12.58
2019-06-07T12:16:30.022Z,12.55
2019-06-07T12:17:30.022Z,12.57
2019-06-07T12:18:30.022Z,12.52
2019-06-07T12:19:30.023Z,12.58
2019-06-07T12:20:30.028Z,12.55
2019-06-07T12:21:30.016Z,12.58
2019-06-07T12:22:30.022Z,12.57
2019-06-07T12:23:30.017Z,12.58
2019-06-07T12:24:30.025Z,12.60
2019-06-07T12:25:30.025Z,12.57
2019-06-07T12:26:30.015Z,12.60
2019-06-07T12:27:30.016Z,12.48
2019-06-07T12:28:30.015Z,12.57
2019-06-07T12:29:30.013Z,12.57
2019-06-07T12:30:30.023Z,12.60
2019-06-07T12:31:30.028Z,12.60
2019-06-07T12:32:30.024Z,12.58
2019-06-07T12:33:30.021Z,12.60
2019-06-07T12:34:30.014Z,12.58
2019-06-07T12:35:30.023Z,12.61
2019-06-07T12:36:30.010Z,12.58
2019-06-07T12:37:43.061Z,12.60
2019-06-07T12:38:30.009Z,12.58
2019-06-07T12:39:30.009Z,12.61
2019-06-07T12:40:32.264Z,12.60
2019-06-07T12:41:30.010Z,12.61
2019-06-07T12:42:30.010Z,12.61
2019-06-07T12:43:30.007Z,12.45
2019-06-07T12:44:30.009Z,12.61
2019-06-07T12:45:44.334Z,12.60
2019-06-07T12:46:30.006Z,12.61
2019-06-07T12:47:30.004Z,12.46
2019-06-07T12:48:30.005Z,12.57
2019-06-07T12:49:30.002Z,12.62
2019-06-07T12:50:42.714Z,12.61
2019-06-07T12:51:30.011Z,12.46
2019-06-07T12:52:30.005Z,12.53
2019-06-07T12:53:30.001Z,12.61
2019-06-07T12:54:30.002Z,12.60
2019-06-07T12:55:30.002Z,12.60
2019-06-07T12:56:30.009Z,12.58
2019-06-07T12:57:30.013Z,12.58
2019-06-07T12:58:35.326Z,12.61
2019-06-07T12:59:30.006Z,12.52
2019-06-07T13:00:29.996Z,12.56
2019-06-07T13:01:30.004Z,12.58
2019-06-07T13:02:29.999Z,12.57
2019-06-07T13:03:30.009Z,12.50
2019-06-07T13:04:30.001Z,12.58